Time;durP1;ratioP1;P1;durP2;ratioP2;P2;SDS_P1;SDS_P2;PMS_P1;PMS_P2;Temp;Humidity;BMP_temperature;BMP_pressure;BME280_temperature;BME280_humidity;BME280_pressure;Samples;Min_cycle;Max_cycle;Signal;HPM_P1;HPM_P2
2023/04/02 08:02:35;;;;;;;62.97;43.40;;;;;;;20.31;45.77;102215.53;5110878;27;20541;-56
2023/04/02 08:05:02;;;;;;;58.40;38.42;;;;;;;21.22;43.65;102224.97;5110757;28;20073;-56
2023/04/02 08:07:29;;;;;;;51.40;34.55;;;;;;;21.91;41.27;102220.09;5109772;28;20116;-56
2023/04/02 08:09:57;;;;;;;49.55;31.40;;;;;;;22.36;40.03;102214.94;5110728;28;20020;-57
2023/04/02 08:12:24;;;;;;;46.72;28.00;;;;;;;22.71;38.37;102225.91;5110461;28;20046;-57
2023/04/02 08:14:52;;;;;;;46.28;28.90;;;;;;;22.85;38.08;102231.66;5109265;28;20085;-56
2023/04/02 08:17:20;;;;;;;52.83;33.22;;;;;;;22.95;38.01;102237.25;5110235;28;20032;-56
2023/04/02 08:19:48;;;;;;;52.47;33.33;;;;;;;22.97;36.99;102220.75;5110450;28;20031;-56
2023/04/02 08:22:15;;;;;;;47.20;30.08;;;;;;;23.18;37.13;102232.88;5110424;28;20053;-56
2023/04/02 08:24:44;;;;;;;52.25;32.17;;;;;;;23.16;36.56;102240.69;5110262;28;20024;-56
2023/04/02 08:27:14;;;;;;;53.83;31.30;;;;;;;23.06;36.22;102244.69;5110044;28;20467;-56
2023/04/02 08:29:41;;;;;;;64.90;41.05;;;;;;;23.02;36.55;102244.47;5110611;28;20031;-56
2023/04/02 08:32:14;;;;;;;58.58;37.33;;;;;;;22.94;36.39;102248.56;5110569;28;20027;-62
2023/04/02 08:34:43;;;;;;;55.75;31.63;;;;;;;23.10;36.40;102264.00;5110436;28;20042;-60
2023/04/02 08:37:13;;;;;;;56.58;35.28;;;;;;;23.17;35.84;102268.59;5109828;28;20050;-55
2023/04/02 08:39:40;;;;;;;62.95;39.88;;;;;;;23.09;36.18;102258.69;5109959;28;20030;-56
2023/04/02 08:42:21;;;;;;;50.47;30.20;;;;;;;23.02;36.59;102273.28;5109913;28;20028;-56
2023/04/02 08:45:09;;;;;;;51.55;30.75;;;;;;;23.02;36.26;102270.66;5110044;28;20024;-56
2023/04/02 08:47:39;;;;;;;55.38;34.45;;;;;;;22.92;36.74;102275.56;5102820;28;20036;-56
2023/04/02 08:50:24;;;;;;;59.85;35.63;;;;;;;22.96;36.51;102268.69;5109594;28;20020;-56
2023/04/02 08:52:51;;;;;;;61.55;37.67;;;;;;;22.99;36.42;102287.16;5109027;28;20031;-56
2023/04/02 08:55:36;;;;;;;60.08;35.85;;;;;;;23.05;35.94;102276.91;5109468;28;20028;-56
2023/04/02 08:58:24;;;;;;;62.22;34.22;;;;;;;23.02;36.23;102283.75;5109908;28;20031;-57
2023/04/02 09:00:55;;;;;;;64.68;39.90;;;;;;;23.03;36.12;102291.66;5102561;28;20090;-56
2023/04/02 09:03:32;;;;;;;56.60;34.15;;;;;;;23.06;35.82;102280.41;5109657;28;20032;-56
2023/04/02 09:06:01;;;;;;;34.60;21.40;;;;;;;23.04;35.66;102287.31;5108512;28;20092;-57
2023/04/02 09:08:31;;;;;;;40.88;22.92;;;;;;;23.05;35.51;102287.38;5107699;28;20417;-57
2023/04/02 09:11:20;;;;;;;30.48;17.98;;;;;;;22.95;35.57;102286.97;5108468;28;20384;-57
2023/04/02 09:13:54;;;;;;;26.05;16.38;;;;;;;23.01;35.86;102284.56;5091954;28;20539;-57
2023/04/02 09:16:34;;;;;;;22.27;12.38;;;;;;;23.00;35.69;102295.91;5094108;28;20032;-57
2023/04/02 09:19:03;;;;;;;25.98;13.35;;;;;;;22.89;35.74;102298.97;5095281;28;20066;-56
2023/04/02 09:21:38;;;;;;;25.92;14.93;;;;;;;22.85;35.48;102297.06;5094407;28;20127;-56
2023/04/02 09:24:09;;;;;;;23.58;13.35;;;;;;;22.96;35.61;102300.09;5095878;28;20016;-56
2023/04/02 09:26:36;;;;;;;25.95;13.27;;;;;;;22.92;34.75;102298.19;5094471;28;20060;-56
2023/04/02 09:29:08;;;;;;;29.42;16.52;;;;;;;22.75;35.51;102306.28;5095109;28;20032;-56
2023/04/02 09:31:39;;;;;;;24.35;13.82;;;;;;;22.76;34.75;102301.94;5095787;28;20469;-56
2023/04/02 09:34:28;;;;;;;24.73;12.30;;;;;;;22.85;35.31;102309.28;5095164;28;20548;-56
2023/04/02 09:36:56;;;;;;;21.67;12.80;;;;;;;22.94;35.08;102293.03;5095935;28;20393;-56
2023/04/02 09:39:25;;;;;;;19.15;11.60;;;;;;;22.94;35.01;102306.13;5093522;28;20058;-56
2023/04/02 09:41:53;;;;;;;17.67;10.40;;;;;;;22.89;34.78;102308.56;5094028;28;20443;-56
2023/04/02 09:44:27;;;;;;;20.20;12.80;;;;;;;22.85;35.11;102306.66;5093829;28;20030;-56
2023/04/02 09:46:58;;;;;;;22.95;13.60;;;;;;;22.76;34.93;102299.34;5095102;28;20461;-56
2023/04/02 09:49:30;;;;;;;25.88;15.05;;;;;;;22.74;34.76;102319.31;5093819;28;20107;-56
2023/04/02 09:52:18;;;;;;;17.55;9.80;;;;;;;22.77;35.38;102316.81;5094235;28;20030;-56
2023/04/02 09:55:05;;;;;;;17.33;10.98;;;;;;;22.81;35.06;102316.13;5094681;28;20051;-55
2023/04/02 09:57:33;;;;;;;22.90;11.80;;;;;;;22.88;35.00;102318.13;5095019;28;20338;-56
2023/04/02 10:00:11;;;;;;;21.95;12.68;;;;;;;22.82;35.44;102320.53;5093699;28;20024;-56
2023/04/02 10:02:40;;;;;;;20.60;13.18;;;;;;;22.88;35.90;102322.47;5092834;28;20115;-56
2023/04/02 10:05:18;;;;;;;23.05;14.85;;;;;;;22.85;35.33;102318.00;5094590;28;20024;-42
2023/04/02 10:07:48;;;;;;;25.70;15.55;;;;;;;22.97;34.68;102325.44;5094842;28;20064;-44
2023/04/02 10:10:37;;;;;;;28.20;16.73;;;;;;;23.06;35.14;102328.44;5093158;28;20032;-44
2023/04/02 10:13:07;;;;;;;25.05;16.02;;;;;;;23.13;35.27;102324.31;5069342;28;20040;-44
2023/04/02 10:16:01;;;;;;;20.10;13.63;;;;;;;23.01;34.78;102337.81;5094588;28;20039;-46
2023/04/02 10:18:33;;;;;;;19.33;12.95;;;;;;;23.08;34.67;102340.69;5090478;28;20036;-46
2023/04/02 10:21:05;;;;;;;19.77;12.77;;;;;;;23.09;34.20;102332.88;5091990;28;20028;-43
2023/04/02 10:23:34;;;;;;;19.92;13.48;;;;;;;23.12;34.99;102327.78;5093073;28;20089;-45
2023/04/02 10:26:11;;;;;;;24.85;14.40;;;;;;;23.09;35.07;102338.13;5092505;28;20032;-46
2023/04/02 10:28:42;;;;;;;22.52;14.07;;;;;;;23.14;34.41;102344.44;5094872;28;20027;-48
2023/04/02 10:31:21;;;;;;;23.58;13.82;;;;;;;22.99;34.72;102344.72;5093472;28;20051;-48
2023/04/02 10:34:01;;;;;;;23.70;14.80;;;;;;;22.97;35.29;102350.75;5093317;28;20024;-46
2023/04/02 10:37:00;;;;;;;20.70;14.07;;;;;;;23.03;35.56;102362.34;5092833;28;20024;-43
2023/04/02 10:39:37;;;;;;;21.58;13.85;;;;;;;23.09;35.12;102359.06;5090874;28;20103;-43
2023/04/02 10:42:17;;;;;;;24.77;14.98;;;;;;;23.08;35.44;102357.28;5093705;28;20081;-48
2023/04/02 10:45:06;;;;;;;23.73;13.82;;;;;;;23.15;34.27;102356.69;5092738;28;20404;-47
2023/04/02 10:47:59;;;;;;;22.02;14.20;;;;;;;23.08;35.29;102345.94;5092663;28;20024;-46
2023/04/02 10:50:34;;;;;;;23.00;14.32;;;;;;;23.11;35.32;102348.63;5088579;28;20139;-46
2023/04/02 10:53:14;;;;;;;24.27;15.20;;;;;;;23.13;34.94;102349.59;5093943;28;20020;-47
2023/04/02 10:55:47;;;;;;;25.60;14.57;;;;;;;23.08;34.33;102354.66;5092545;28;20028;-47
2023/04/02 10:58:23;;;;;;;22.75;14.85;;;;;;;23.15;33.95;102355.78;5093727;28;20051;-45
2023/04/02 11:00:54;;;;;;;25.45;15.43;;;;;;;23.16;34.13;102355.84;5092921;28;20048;-43
2023/04/02 11:03:35;;;;;;;25.27;17.00;;;;;;;23.10;35.06;102349.47;5093664;28;20028;-43
2023/04/02 11:06:25;;;;;;;23.90;16.20;;;;;;;23.08;34.61;102359.00;5092931;28;20020;-45
2023/04/02 11:08:57;;;;;;;27.10;17.00;;;;;;;23.12;34.50;102358.28;5092709;28;20317;-46
2023/04/02 11:11:31;;;;;;;33.05;17.10;;;;;;;23.13;34.10;102357.44;5090548;28;20020;-44
2023/04/02 11:14:03;;;;;;;24.73;17.13;;;;;;;23.14;34.30;102348.75;5082940;28;20031;-46
2023/04/02 11:16:30;;;;;;;26.40;17.15;;;;;;;23.05;34.77;102358.06;5091514;28;20028;-49
2023/04/02 11:19:16;;;;;;;26.60;17.58;;;;;;;23.20;34.34;102363.00;5092832;28;20024;-48
2023/04/02 11:21:48;;;;;;;28.42;17.63;;;;;;;23.19;33.83;102366.41;5089258;28;20115;-52
2023/04/02 11:24:28;;;;;;;29.35;18.40;;;;;;;23.27;33.83;102371.09;5092522;28;20020;-49
2023/04/02 11:27:34;;;;;;;30.88;19.70;;;;;;;23.13;34.56;102367.91;5092609;28;20454;-46
2023/04/02 11:30:11;;;;;;;27.20;18.98;;;;;;;23.14;34.61;102368.00;5088069;28;20032;-44
2023/04/02 11:32:41;;;;;;;28.00;18.80;;;;;;;23.11;33.96;102367.88;5090224;28;20119;-49
2023/04/02 11:35:32;;;;;;;29.77;18.50;;;;;;;23.27;33.84;102373.72;5092768;28;20081;-45
2023/04/02 11:38:03;;;;;;;29.27;18.98;;;;;;;23.24;34.38;102376.22;5087378;28;20071;-45
2023/04/02 11:40:45;;;;;;;31.05;17.83;;;;;;;23.27;34.36;102378.97;5090699;28;20085;-45
2023/04/02 11:43:32;;;;;;;28.13;18.25;;;;;;;23.18;34.13;102380.34;5088549;28;20397;-49
2023/04/02 11:46:06;;;;;;;24.00;16.63;;;;;;;23.16;34.18;102375.88;5086058;28;20046;-45
2023/04/02 11:48:35;;;;;;;23.63;15.50;;;;;;;23.08;33.48;102379.94;5090884;28;20107;-43
2023/04/02 11:51:22;;;;;;;24.25;15.10;;;;;;;23.03;33.18;102382.38;5092121;28;20069;-46
2023/04/02 11:53:51;;;;;;;21.27;15.30;;;;;;;23.09;33.52;102385.22;5091778;28;20028;-46
2023/04/02 11:56:22;;;;;;;24.85;15.65;;;;;;;23.11;33.59;102386.19;5092148;28;20477;-47
2023/04/02 11:58:50;;;;;;;21.55;13.70;;;;;;;23.15;33.78;102389.81;5091538;28;20038;-44
2023/04/02 12:01:28;;;;;;;24.58;15.63;;;;;;;23.18;33.43;102392.56;5092661;28;20489;-46
2023/04/02 12:04:16;;;;;;;31.77;16.23;;;;;;;23.15;34.08;102390.72;5091182;28;20032;-45
2023/04/02 12:06:45;;;;;;;24.95;16.35;;;;;;;23.14;33.55;102394.16;5085599;28;20115;-47
2023/04/02 12:09:24;;;;;;;25.55;17.55;;;;;;;23.08;34.10;102391.31;5092779;28;20100;-47
2023/04/02 12:11:55;;;;;;;30.80;17.85;;;;;;;23.12;34.27;102389.69;5092818;28;20028;-46
2023/04/02 12:14:44;;;;;;;29.50;19.08;;;;;;;23.17;33.47;102396.88;5092527;28;20522;-48
2023/04/02 12:17:18;;;;;;;32.28;19.65;;;;;;;23.11;34.01;102396.66;5074600;28;20420;-44
2023/04/02 12:19:52;;;;;;;27.98;19.27;;;;;;;23.16;33.10;102389.91;5091185;28;20108;-43
2023/04/02 12:22:26;;;;;;;27.67;20.02;;;;;;;23.09;33.97;102392.19;5092817;28;20035;-44
2023/04/02 12:24:58;;;;;;;34.17;21.08;;;;;;;23.13;34.10;102402.84;5092261;28;20029;-43
2023/04/02 12:27:28;;;;;;;32.50;21.02;;;;;;;23.18;33.71;102400.41;5092346;28;20435;-48
2023/04/02 12:30:11;;;;;;;30.67;19.50;;;;;;;23.20;33.53;102394.41;5092116;28;20028;-44
2023/04/02 12:32:40;;;;;;;30.17;19.67;;;;;;;23.08;33.63;102399.16;5092114;28;20033;-44
2023/04/02 12:35:27;;;;;;;31.83;21.33;;;;;;;23.18;33.89;102401.28;5092221;28;20055;-44
2023/04/02 12:37:56;;;;;;;32.65;21.92;;;;;;;23.12;33.95;102401.06;5092642;28;20078;-47
2023/04/02 12:40:26;;;;;;;32.55;21.92;;;;;;;23.07;33.97;102405.22;5092291;28;20039;-43
2023/04/02 12:42:54;;;;;;;34.92;22.95;;;;;;;22.99;34.18;102406.66;5091345;28;20370;-48
2023/04/02 12:45:24;;;;;;;36.47;23.75;;;;;;;23.04;34.20;102410.31;5092020;28;20028;-51
2023/04/02 12:47:53;;;;;;;31.90;21.25;;;;;;;23.08;34.07;102412.25;5094049;28;20051;-43
2023/04/02 12:50:22;;;;;;;31.38;21.88;;;;;;;23.07;34.17;102407.84;5096514;28;20028;-43
2023/04/02 12:52:53;;;;;;;35.78;24.92;;;;;;;23.12;33.26;102401.06;5076041;28;20439;-45
2023/04/02 12:55:23;;;;;;;30.20;21.90;;;;;;;23.09;33.62;102395.69;5074297;28;20107;-43
2023/04/02 12:58:01;;;;;;;33.10;24.52;;;;;;;23.16;34.07;102400.38;5075722;28;20442;-46
2023/04/02 13:00:30;;;;;;;36.05;23.85;;;;;;;23.17;33.77;102404.72;5075858;28;20105;-44
2023/04/02 13:03:16;;;;;;;36.88;24.65;;;;;;;23.08;34.05;102395.66;5096256;28;20031;-47
2023/04/02 13:05:57;;;;;;;35.42;23.80;;;;;;;23.11;34.38;102403.59;5095370;28;20039;-43
2023/04/02 13:08:29;;;;;;;35.20;25.05;;;;;;;23.18;34.09;102405.66;5095172;28;20030;-44
2023/04/02 13:11:02;;;;;;;38.40;26.67;;;;;;;23.11;34.70;102401.00;5094189;28;20020;-50
2023/04/02 13:13:34;;;;;;;44.45;28.63;;;;;;;23.16;34.99;102407.31;5091703;28;20088;-49
2023/04/02 13:16:05;;;;;;;43.72;29.65;;;;;;;23.15;34.63;102409.03;5091398;28;20028;-46
2023/04/02 13:18:34;;;;;;;39.55;27.95;;;;;;;23.22;34.38;102407.59;5089950;28;20048;-44
2023/04/02 13:21:03;;;;;;;33.92;25.42;;;;;;;23.20;34.01;102403.97;5069603;28;20035;-46
2023/04/02 13:23:31;;;;;;;42.83;27.58;;;;;;;23.16;34.52;102412.53;5091189;28;20025;-46
2023/04/02 13:26:02;;;;;;;36.70;23.60;;;;;;;23.06;33.97;102413.91;5090491;28;20114;-46
2023/04/02 13:28:30;;;;;;;35.28;23.77;;;;;;;23.03;34.35;102411.16;5094923;28;20028;-42
2023/04/02 13:30:58;;;;;;;38.22;23.65;;;;;;;23.02;34.30;102415.50;5094295;28;20036;-48
2023/04/02 13:33:27;;;;;;;37.25;24.10;;;;;;;23.06;34.45;102424.38;5093394;28;20024;-47
2023/04/02 13:35:55;;;;;;;36.17;23.48;;;;;;;23.09;34.38;102423.59;5094283;28;20060;-43
2023/04/02 13:38:23;;;;;;;33.70;23.38;;;;;;;23.09;34.47;102426.22;5093825;28;20059;-43
2023/04/02 13:40:51;;;;;;;35.47;24.02;;;;;;;23.11;34.49;102430.69;5094025;28;20023;-48
2023/04/02 13:43:19;;;;;;;40.55;25.10;;;;;;;23.06;34.07;102425.28;5094614;28;20114;-44
2023/04/02 13:45:50;;;;;;;36.97;24.08;;;;;;;22.97;34.24;102426.63;5093045;28;20101;-48
2023/04/02 13:48:18;;;;;;;39.72;24.30;;;;;;;23.00;34.26;102427.63;5092780;28;20028;-49
2023/04/02 13:50:46;;;;;;;38.50;24.67;;;;;;;23.02;34.02;102427.69;5094847;28;20024;-51
2023/04/02 13:53:22;;;;;;;34.45;23.15;;;;;;;23.04;33.86;102415.56;5094729;28;20554;-50
2023/04/02 13:55:51;;;;;;;35.90;24.75;;;;;;;23.13;33.77;102428.13;5094292;28;20043;-48
2023/04/02 13:58:18;;;;;;;36.05;23.88;;;;;;;23.10;33.94;102426.28;5091625;28;20506;-49
2023/04/02 14:00:47;;;;;;;37.53;25.77;;;;;;;23.07;33.98;102426.16;5092952;28;20382;-45
2023/04/02 14:03:21;;;;;;;40.15;26.83;;;;;;;22.99;33.82;102425.84;5092110;28;20096;-47
2023/04/02 14:05:52;;;;;;;40.75;26.65;;;;;;;22.86;33.96;102421.84;5092154;28;20032;-49
2023/04/02 14:08:22;;;;;;;44.45;28.42;;;;;;;22.81;33.98;102426.00;5092709;28;20028;-50
2023/04/02 14:11:02;;;;;;;43.08;26.65;;;;;;;22.87;33.87;102425.38;5092263;28;20024;-47
2023/04/02 14:13:49;;;;;;;33.80;24.92;;;;;;;22.72;33.97;102423.91;5092437;28;20449;-52
2023/04/02 14:16:45;;;;;;;42.20;26.95;;;;;;;22.72;33.86;102415.16;5086945;28;20047;-44
2023/04/02 14:19:23;;;;;;;44.08;27.15;;;;;;;22.83;33.88;102424.34;5088354;28;20402;-46
2023/04/02 14:22:01;;;;;;;37.53;25.02;;;;;;;22.78;34.09;102418.03;5091903;28;20142;-45
2023/04/02 14:24:39;;;;;;;45.78;26.67;;;;;;;22.79;33.78;102419.81;5093493;28;20047;-49
2023/04/02 14:27:30;;;;;;;43.85;27.10;;;;;;;22.77;33.81;102435.44;5087603;28;20028;-47
2023/04/02 14:30:01;;;;;;;40.25;25.83;;;;;;;22.76;33.97;102425.78;5090198;28;20044;-49
2023/04/02 14:32:51;;;;;;;44.60;29.05;;;;;;;22.71;33.90;102418.59;5093161;28;20104;-48
2023/04/02 14:35:37;;;;;;;42.83;26.13;;;;;;;22.76;34.17;102428.41;5084550;28;20035;-47
2023/04/02 14:38:25;;;;;;;43.75;28.20;;;;;;;22.76;33.99;102432.75;5093536;28;20032;-50
2023/04/02 14:41:03;;;;;;;38.08;25.70;;;;;;;22.78;34.63;102431.09;5072206;28;20405;-47
2023/04/02 14:43:45;;;;;;;37.95;25.10;;;;;;;22.88;33.83;102429.75;5073890;28;20028;-44
2023/04/02 14:46:12;;;;;;;34.63;23.80;;;;;;;22.90;34.33;102426.38;5072579;28;20028;-45
2023/04/02 14:48:45;;;;;;;32.83;21.85;;;;;;;23.05;33.81;102425.19;5088103;28;20024;-45
2023/04/02 14:51:34;;;;;;;44.53;29.42;;;;;;;23.15;34.88;102426.47;5093586;28;20032;-45
2023/04/02 14:54:19;;;;;;;51.60;30.48;;;;;;;23.06;34.53;102434.84;5092537;28;20032;-51
2023/04/02 14:56:50;;;;;;;51.10;30.93;;;;;;;23.18;34.77;102435.31;5092188;28;20039;-52
2023/04/02 14:59:56;;;;;;;60.22;36.20;;;;;;;23.17;34.88;102430.03;5093858;28;20024;-45
2023/04/02 15:02:43;;;;;;;;;;;;;;;23.25;34.87;102427.75;5087028;28;20048;-45
2023/04/02 15:05:19;;;;;;;73.15;44.30;;;;;;;23.16;35.08;102421.31;5092706;28;19919;-46
2023/04/02 15:07:59;;;;;;;72.78;44.28;;;;;;;23.11;35.19;102432.41;5093689;28;20054;-45
2023/04/02 15:10:28;;;;;;;67.43;43.38;;;;;;;23.15;35.43;102429.06;5092908;28;20086;-44
2023/04/02 15:12:58;;;;;;;61.78;40.60;;;;;;;23.19;35.46;102424.00;5093570;28;20508;-50
2023/04/02 15:15:44;;;;;;;62.90;40.15;;;;;;;23.26;35.30;102430.41;5093281;28;20032;-51
2023/04/02 15:18:15;;;;;;;67.68;40.90;;;;;;;23.31;35.16;102422.78;5089112;28;20060;-49
2023/04/02 15:21:21;;;;;;;61.58;38.95;;;;;;;23.27;35.49;102420.84;5092851;28;20042;-51
2023/04/02 15:23:48;;;;;;;;;;;;;;;23.38;35.54;102424.78;5079748;28;20043;-50
2023/04/02 15:26:26;;;;;;;58.83;36.20;;;;;;;23.26;35.75;102409.47;5093646;28;19959;-52
2023/04/02 15:28:58;;;;;;;60.70;37.55;;;;;;;23.36;35.64;102429.06;5092506;28;20081;-44
2023/04/02 15:31:28;;;;;;;55.33;33.50;;;;;;;23.35;35.67;102428.19;5093024;28;20461;-43
2023/04/02 15:34:22;;;;;;;56.30;34.15;;;;;;;23.34;36.05;102423.78;5093320;28;20020;-47
2023/04/02 15:37:28;;;;;;;52.65;33.75;;;;;;;23.36;35.96;102421.19;5093124;28;20028;-47
2023/04/02 15:40:01;;;;;;;57.47;33.90;;;;;;;23.29;36.48;102421.81;5083205;28;20032;-49
2023/04/02 15:42:38;;;;;;;50.33;30.88;;;;;;;23.29;35.98;102419.19;5093333;28;20043;-51
2023/04/02 15:45:17;;;;;;;40.42;26.85;;;;;;;23.32;35.75;102419.31;5091811;28;20032;-50
2023/04/02 15:47:48;;;;;;;45.83;28.20;;;;;;;23.32;35.80;102417.56;5093052;28;20032;-46
2023/04/02 15:50:55;;;;;;;49.75;27.05;;;;;;;23.33;35.82;102421.97;5092794;28;20020;-47
2023/04/02 15:53:31;;;;;;;44.53;26.33;;;;;;;23.31;35.83;102414.91;5084399;28;20036;-48
2023/04/02 15:56:03;;;;;;;37.75;24.83;;;;;;;23.39;35.84;102428.31;5090282;28;20110;-43
2023/04/02 15:58:59;;;;;;;40.70;24.67;;;;;;;23.43;35.85;102433.72;5092846;28;20039;-43
2023/04/02 16:01:29;;;;;;;35.75;23.63;;;;;;;23.50;35.73;102429.59;5092250;28;20076;-51
2023/04/02 16:04:14;;;;;;;35.83;23.73;;;;;;;23.40;36.00;102419.63;5092829;28;20024;-50
2023/04/02 16:06:47;;;;;;;41.78;22.73;;;;;;;23.46;36.34;102422.44;5093150;28;20103;-44
2023/04/02 16:09:26;;;;;;;40.78;23.55;;;;;;;23.46;36.46;102418.13;5093283;28;20028;-51
2023/04/02 16:12:01;;;;;;;34.75;22.17;;;;;;;23.46;36.15;102419.81;5092294;28;20056;-48
2023/04/02 16:14:33;;;;;;;29.25;20.58;;;;;;;23.49;36.39;102426.09;5074316;28;20028;-44
2023/04/02 16:17:05;;;;;;;35.15;19.88;;;;;;;23.48;36.16;102420.78;5092866;28;20020;-49
2023/04/02 16:19:36;;;;;;;33.38;21.33;;;;;;;23.48;36.63;102423.41;5091575;28;20028;-49
2023/04/02 16:22:08;;;;;;;32.95;20.75;;;;;;;23.52;36.43;102426.19;5090144;28;20035;-49
2023/04/02 16:24:36;;;;;;;29.80;20.45;;;;;;;23.49;36.85;102426.09;5096504;28;20055;-49
2023/04/02 16:27:05;;;;;;;31.73;20.20;;;;;;;23.53;36.69;102421.88;5095582;28;20031;-44
2023/04/02 16:29:37;;;;;;;37.00;19.83;;;;;;;23.48;36.80;102423.41;5096873;28;20109;-44
2023/04/02 16:32:16;;;;;;;27.80;18.02;;;;;;;23.44;36.81;102427.63;5095884;28;20028;-44
2023/04/02 16:34:53;;;;;;;30.25;18.83;;;;;;;23.46;36.39;102425.06;5096254;28;20035;-43
2023/04/02 16:37:37;;;;;;;29.50;17.50;;;;;;;23.46;36.34;102425.97;5096530;28;20035;-49
2023/04/02 16:40:27;;;;;;;26.90;17.08;;;;;;;23.46;36.55;102418.13;5095319;28;20032;-48
2023/04/02 16:43:33;;;;;;;25.33;16.45;;;;;;;23.48;36.75;102426.94;5092168;28;20036;-49
2023/04/02 16:46:04;;;;;;;;;;;;;;;23.56;36.50;102435.09;5095208;28;20031;-47
2023/04/02 16:48:56;;;;;;;24.48;15.55;;;;;;;23.52;36.62;102438.41;5095449;28;19916;-46
2023/04/02 16:52:01;;;;;;;22.15;15.05;;;;;;;23.55;36.56;102428.06;5096154;28;20095;-44
2023/04/02 16:54:44;;;;;;;24.98;14.95;;;;;;;23.54;36.63;102439.38;5086747;28;20074;-49
2023/04/02 16:57:38;;;;;;;26.50;13.98;;;;;;;23.53;36.48;102440.19;5094832;28;20035;-49
2023/04/02 17:00:31;;;;;;;39.63;24.63;;;;;;;23.57;36.87;102443.81;5092351;28;20176;-45
2023/04/02 17:03:00;;;;;;;50.08;30.73;;;;;;;23.56;36.49;102447.28;5084586;28;20192;-50
2023/04/02 17:05:32;;;;;;;36.85;23.98;;;;;;;23.59;36.65;102455.25;5096020;28;20103;-44
2023/04/02 17:08:29;;;;;;;31.48;21.05;;;;;;;23.61;36.69;102461.44;5094309;28;20074;-50
2023/04/02 17:11:09;;;;;;;30.15;19.20;;;;;;;23.53;36.89;102453.28;5079608;28;20123;-50
2023/04/02 17:13:42;;;;;;;27.23;19.80;;;;;;;23.63;36.58;102463.28;5074214;28;20021;-51
2023/04/02 17:16:19;;;;;;;26.73;17.65;;;;;;;23.66;36.54;102467.75;5073999;28;20035;-50
2023/04/02 17:18:49;;;;;;;28.08;18.23;;;;;;;23.69;36.73;102472.22;5075403;28;20067;-49
2023/04/02 17:21:25;;;;;;;25.00;16.58;;;;;;;23.67;36.94;102475.66;5082811;28;20031;-48
2023/04/02 17:23:56;;;;;;;24.15;16.80;;;;;;;23.71;36.78;102473.16;5095994;28;20023;-51
2023/04/02 17:26:26;;;;;;;28.85;16.48;;;;;;;23.72;36.77;102472.34;5095490;28;20024;-48
2023/04/02 17:28:54;;;;;;;22.52;15.50;;;;;;;23.73;36.89;102476.75;5093832;28;20035;-47
2023/04/02 17:31:23;;;;;;;19.35;14.77;;;;;;;23.78;36.86;102481.31;5093483;28;20035;-47
2023/04/02 17:33:50;;;;;;;22.20;15.15;;;;;;;23.80;36.97;102487.53;5094053;28;20504;-45
2023/04/02 17:36:43;;;;;;;19.15;13.80;;;;;;;23.79;36.71;102479.56;5093147;28;20032;-49
2023/04/02 17:39:34;;;;;;;20.85;13.45;;;;;;;23.86;36.89;102484.22;5078425;28;20031;-51
2023/04/02 17:42:15;;;;;;;20.02;13.00;;;;;;;23.92;36.93;102491.44;5089342;28;20585;-52
2023/04/02 17:45:08;;;;;;;22.23;13.40;;;;;;;23.94;36.59;102497.63;5093092;28;20031;-49
2023/04/02 17:47:37;;;;;;;17.40;11.63;;;;;;;23.89;36.88;102496.53;5086739;28;20044;-52
2023/04/02 17:50:10;;;;;;;20.35;11.52;;;;;;;23.94;36.52;102500.25;5093579;28;20031;-48
2023/04/02 17:52:39;;;;;;;19.90;15.85;;;;;;;23.95;37.08;102510.78;5093593;28;20111;-49
2023/04/02 17:55:39;;;;;;;19.60;13.43;;;;;;;24.00;36.83;102512.72;5092612;28;20477;-49
2023/04/02 17:58:45;;;;;;;21.15;14.57;;;;;;;23.99;36.88;102508.31;5092648;28;20063;-43
2023/04/02 18:01:12;;;;;;;;;;;;;;;24.09;36.63;102513.94;5084998;28;20546;-44
2023/04/02 18:03:49;;;;;;;18.27;12.48;;;;;;;24.09;36.97;102516.56;5071954;28;19964;-46
2023/04/02 18:06:21;;;;;;;17.73;11.68;;;;;;;24.12;36.85;102518.41;5092380;28;20051;-47
2023/04/02 18:09:09;;;;;;;19.70;11.52;;;;;;;24.14;36.61;102519.34;5093197;28;20028;-48
2023/04/02 18:11:46;;;;;;;16.33;11.25;;;;;;;24.19;36.82;102523.06;5093800;28;20113;-49
2023/04/02 18:14:18;;;;;;;13.15;10.20;;;;;;;24.23;36.96;102516.19;5093214;28;20020;-45
2023/04/02 18:17:04;;;;;;;15.60;9.95;;;;;;;24.22;36.60;102517.00;5090629;28;20035;-51
2023/04/02 18:20:10;;;;;;;15.70;9.70;;;;;;;24.31;36.58;102520.00;5090467;28;20054;-48
2023/04/02 18:23:03;;;;;;;17.25;13.18;;;;;;;24.32;36.93;102520.88;5089331;28;20101;-46
2023/04/02 18:25:35;;;;;;;19.33;11.43;;;;;;;24.38;36.94;102519.34;5084230;28;20032;-43
2023/04/02 18:28:25;;;;;;;13.63;10.27;;;;;;;24.42;36.69;102523.88;5091978;28;20028;-47
2023/04/02 18:30:52;;;;;;;13.98;9.60;;;;;;;24.42;36.81;102525.59;5088065;28;20504;-43
2023/04/02 18:33:39;;;;;;;13.77;10.13;;;;;;;24.48;36.72;102525.81;5093687;28;20176;-49
2023/04/02 18:36:26;;;;;;;15.02;9.73;;;;;;;24.54;36.84;102526.06;5094456;28;20040;-49
2023/04/02 18:38:57;;;;;;;13.45;9.95;;;;;;;24.54;37.23;102523.44;5093614;28;20058;-43
2023/04/02 18:41:35;;;;;;;15.13;10.07;;;;;;;24.56;37.13;102528.72;5094135;28;20085;-49
2023/04/02 18:44:30;;;;;;;13.13;9.60;;;;;;;24.57;37.22;102536.63;5094227;28;20032;-49
2023/04/02 18:47:36;;;;;;;16.98;9.70;;;;;;;24.67;37.13;102540.47;5093398;28;20394;-48
2023/04/02 18:50:12;;;;;;;;;;;;;;;24.76;37.19;102537.31;5090695;28;20573;-50
2023/04/02 18:52:40;;;;;;;11.98;7.93;;;;;;;24.76;37.18;102542.56;5094106;28;20365;-50
2023/04/02 18:55:19;;;;;;;14.25;8.30;;;;;;;24.76;37.13;102534.69;5093761;28;20088;-49
2023/04/02 18:57:49;;;;;;;10.88;7.50;;;;;;;24.82;36.88;102539.28;5092523;28;20469;-46
2023/04/02 19:00:38;;;;;;;13.63;7.90;;;;;;;24.84;36.81;102541.09;5075059;28;20032;-43
2023/04/02 19:03:44;;;;;;;15.18;8.80;;;;;;;24.87;36.96;102537.69;5075733;28;20386;-49
2023/04/02 19:06:23;;;;;;;11.57;8.10;;;;;;;24.94;36.83;102539.69;5085427;28;20032;-49
2023/04/02 19:09:01;;;;;;;12.90;7.13;;;;;;;24.93;37.08;102532.66;5092158;28;20048;-51
2023/04/02 19:11:30;;;;;;;11.95;7.60;;;;;;;24.96;36.98;102535.38;5093701;28;20103;-48
2023/04/02 19:14:02;;;;;;;12.60;7.40;;;;;;;24.99;36.95;102537.22;5092315;28;20023;-50
2023/04/02 19:16:58;;;;;;;9.93;6.65;;;;;;;25.07;36.88;102545.34;5092741;28;20020;-49
2023/04/02 19:19:29;;;;;;;14.43;7.00;;;;;;;25.08;36.99;102542.75;5093429;28;20469;-49
2023/04/02 19:22:16;;;;;;;10.90;6.78;;;;;;;25.12;36.55;102551.66;5093326;28;20480;-46
2023/04/02 19:24:49;;;;;;;10.05;6.63;;;;;;;25.12;36.82;102546.41;5093672;28;20099;-49
2023/04/02 19:27:24;;;;;;;9.10;6.10;;;;;;;25.16;36.63;102545.63;5092890;28;20030;-48
2023/04/02 19:30:05;;;;;;;8.40;5.50;;;;;;;25.24;36.72;102556.41;5093213;28;20052;-47
2023/04/02 19:32:49;;;;;;;9.90;6.00;;;;;;;25.27;36.40;102554.78;5093500;28;20026;-44
2023/04/02 19:35:26;;;;;;;9.27;5.73;;;;;;;25.31;36.58;102547.88;5093154;28;20032;-49
2023/04/02 19:37:58;;;;;;;14.02;6.05;;;;;;;25.34;36.41;102553.25;5091989;28;20476;-45
2023/04/02 19:40:29;;;;;;;9.60;5.65;;;;;;;25.36;36.40;102555.91;5092227;28;20034;-49
2023/04/02 19:42:57;;;;;;;8.23;5.00;;;;;;;25.42;36.45;102561.41;5092268;28;20020;-49
2023/04/02 19:45:47;;;;;;;9.77;6.68;;;;;;;25.37;36.60;102563.84;5091837;28;20135;-45
2023/04/02 19:48:23;;;;;;;8.32;5.85;;;;;;;25.39;36.31;102562.19;5093294;28;20491;-52
2023/04/02 19:50:51;;;;;;;10.98;7.25;;;;;;;25.46;36.76;102566.81;5088625;28;20032;-49
2023/04/02 19:53:18;;;;;;;10.50;6.00;;;;;;;25.47;36.43;102563.34;5087389;28;20028;-49
2023/04/02 19:55:46;;;;;;;10.05;6.25;;;;;;;25.55;36.38;102565.31;5092583;28;20074;-44
2023/04/02 19:58:22;;;;;;;8.27;5.57;;;;;;;25.63;36.21;102566.44;5090685;28;20100;-44